createdAt,value
2023-05-21T00:00:36.612Z,73.41
2023-05-21T00:01:36.604Z,72.78
2023-05-21T00:02:36.680Z,73.02
2023-05-21T00:03:36.724Z,73.09
2023-05-21T00:04:36.558Z,73.06
2023-05-21T00:05:36.744Z,73.63
2023-05-21T00:06:36.624Z,73.43
2023-05-21T00:07:36.535Z,73.38
2023-05-21T00:08:36.507Z,72.85
2023-05-21T00:09:36.493Z,73.11
2023-05-21T00:10:36.480Z,72.75
2023-05-21T00:11:36.497Z,73.02
2023-05-21T00:12:36.461Z,72.22
2023-05-21T00:13:36.443Z,72.83
2023-05-21T00:14:36.428Z,73.31
2023-05-21T00:15:36.675Z,73.13
2023-05-21T00:16:36.460Z,73.23
2023-05-21T00:17:36.417Z,73.16
2023-05-21T00:18:36.370Z,73.48
2023-05-21T00:19:36.363Z,73.01
2023-05-21T00:20:36.345Z,73.13
2023-05-21T00:21:36.348Z,73.37
2023-05-21T00:22:36.372Z,72.59
2023-05-21T00:23:36.312Z,73.34
2023-05-21T00:24:36.289Z,73.13
2023-05-21T00:25:36.490Z,72.65
2023-05-21T00:26:36.280Z,72.90
2023-05-21T00:27:36.266Z,72.52
2023-05-21T00:28:36.241Z,72.74
2023-05-21T00:29:36.235Z,73.28
2023-05-21T00:30:36.213Z,72.73
2023-05-21T00:31:36.251Z,72.43
2023-05-21T00:32:36.235Z,74.16
2023-05-21T00:33:36.203Z,73.37
2023-05-21T00:34:36.164Z,72.92
2023-05-21T00:35:36.290Z,72.07
2023-05-21T00:36:36.144Z,72.22
2023-05-21T00:37:36.131Z,72.39
2023-05-21T00:38:36.108Z,72.15
2023-05-21T00:39:36.109Z,71.95
2023-05-21T00:40:36.081Z,71.94
2023-05-21T00:41:36.079Z,72.28
2023-05-21T00:42:36.083Z,71.71
2023-05-21T00:43:36.047Z,71.80
2023-05-21T00:44:36.035Z,72.28
2023-05-21T00:45:36.196Z,72.37
2023-05-21T00:46:36.004Z,72.12
2023-05-21T00:47:36.107Z,72.75
2023-05-21T00:48:35.990Z,72.30
2023-05-21T00:49:35.972Z,72.68
2023-05-21T00:50:35.946Z,72.88
2023-05-21T00:51:35.955Z,72.41
2023-05-21T00:52:35.932Z,72.66
2023-05-21T00:53:35.916Z,73.19
2023-05-21T00:54:35.911Z,72.56
2023-05-21T00:55:35.999Z,72.73
2023-05-21T00:56:35.872Z,72.31
2023-05-21T00:57:35.882Z,71.91
2023-05-21T00:58:35.879Z,71.38
2023-05-21T00:59:35.834Z,72.11
2023-05-21T01:00:35.865Z,72.01
2023-05-21T01:01:35.836Z,72.36
2023-05-21T01:02:35.857Z,72.86
2023-05-21T01:03:35.879Z,72.72
2023-05-21T01:04:35.772Z,72.61
2023-05-21T01:05:35.951Z,72.39
2023-05-21T01:06:35.756Z,72.65
2023-05-21T01:07:35.732Z,71.96
2023-05-21T01:08:35.727Z,73.19
2023-05-21T01:09:35.721Z,73.68
2023-05-21T01:10:35.706Z,72.94
2023-05-21T01:11:35.678Z,72.29
2023-05-21T01:12:35.663Z,71.77
2023-05-21T01:13:35.664Z,72.25
2023-05-21T01:14:35.634Z,71.66
2023-05-21T01:15:35.850Z,72.27
2023-05-21T01:16:35.614Z,72.06
2023-05-21T01:17:35.684Z,72.65
2023-05-21T01:18:35.635Z,72.48
2023-05-21T01:19:35.677Z,71.45
2023-05-21T01:20:35.562Z,72.28
2023-05-21T01:21:35.543Z,71.48
2023-05-21T01:22:35.533Z,71.24
2023-05-21T01:23:35.536Z,70.52
2023-05-21T01:24:35.545Z,70.82
2023-05-21T01:25:35.806Z,70.25
2023-05-21T01:26:35.478Z,69.93
2023-05-21T01:27:35.478Z,70.33
2023-05-21T01:28:35.457Z,69.84
2023-05-21T01:29:35.440Z,70.08
2023-05-21T01:30:35.424Z,70.79
2023-05-21T01:31:35.418Z,71.29
2023-05-21T01:32:35.522Z,71.01
2023-05-21T01:33:35.471Z,70.77
2023-05-21T01:34:35.369Z,70.66
2023-05-21T01:35:35.567Z,70.66
2023-05-21T01:36:35.352Z,70.61
2023-05-21T01:37:35.340Z,71.36
2023-05-21T01:38:35.332Z,71.24
2023-05-21T01:39:35.316Z,71.02
2023-05-21T01:40:35.299Z,70.74
2023-05-21T01:41:35.284Z,70.46
2023-05-21T01:42:35.276Z,71.15
2023-05-21T01:43:35.268Z,70.88
2023-05-21T01:44:35.255Z,70.80
2023-05-21T01:45:35.399Z,71.19
2023-05-21T01:46:35.313Z,70.65
2023-05-21T01:47:35.226Z,70.04
2023-05-21T01:48:35.231Z,70.51
2023-05-21T01:49:35.200Z,70.06
2023-05-21T01:50:35.186Z,70.74
2023-05-21T01:51:35.208Z,70.52
2023-05-21T01:52:35.168Z,70.14
2023-05-21T01:53:35.153Z,71.00
2023-05-21T01:54:35.134Z,70.42
2023-05-21T01:55:35.235Z,70.53
2023-05-21T01:56:35.108Z,70.17
2023-05-21T01:57:35.096Z,70.69
2023-05-21T01:58:35.095Z,71.53
2023-05-21T01:59:35.057Z,70.96
2023-05-21T02:00:35.047Z,70.96
2023-05-21T02:01:35.055Z,70.10
2023-05-21T02:02:35.076Z,70.96
2023-05-21T02:03:35.048Z,71.27
2023-05-21T02:04:34.986Z,70.39
2023-05-21T02:05:35.272Z,70.19
2023-05-21T02:06:34.958Z,69.64
2023-05-21T02:07:34.954Z,69.79
2023-05-21T02:08:34.936Z,69.29
2023-05-21T02:09:34.935Z,69.64
2023-05-21T02:10:34.920Z,69.64
2023-05-21T02:11:34.904Z,70.21
2023-05-21T02:12:34.884Z,70.10
2023-05-21T02:13:34.871Z,69.90
2023-05-21T02:14:34.882Z,70.31
2023-05-21T02:15:35.370Z,70.29
2023-05-21T02:16:34.912Z,70.35
2023-05-21T02:17:34.899Z,69.83
2023-05-21T02:18:34.803Z,69.74
2023-05-21T02:19:34.918Z,69.87
2023-05-21T02:20:34.784Z,70.09
2023-05-21T02:21:34.779Z,69.73
2023-05-21T02:22:34.762Z,70.31
2023-05-21T02:23:34.752Z,70.43
2023-05-21T02:24:34.752Z,69.41
2023-05-21T02:25:34.875Z,69.66
2023-05-21T02:26:34.708Z,70.29
2023-05-21T02:27:34.696Z,70.61
2023-05-21T02:28:34.679Z,70.02
2023-05-21T02:29:34.677Z,69.88
2023-05-21T02:30:34.655Z,69.77
2023-05-21T02:31:34.638Z,70.34
2023-05-21T02:32:34.640Z,70.29
2023-05-21T02:33:34.664Z,69.53
2023-05-21T02:34:34.615Z,70.23
2023-05-21T02:35:34.786Z,69.89
2023-05-21T02:36:34.586Z,70.37
2023-05-21T02:37:34.560Z,70.16
2023-05-21T02:38:34.554Z,70.38
2023-05-21T02:39:34.557Z,71.18
2023-05-21T02:40:34.536Z,71.45
2023-05-21T02:41:34.527Z,70.64
2023-05-21T02:42:34.509Z,70.54
2023-05-21T02:43:34.488Z,70.23
2023-05-21T02:44:34.494Z,69.81
2023-05-21T02:45:34.689Z,70.35
2023-05-21T02:46:34.444Z,70.45
2023-05-21T02:47:34.495Z,69.96
2023-05-21T02:48:34.425Z,70.22
2023-05-21T02:49:34.429Z,69.48
2023-05-21T02:50:34.409Z,69.40
2023-05-21T02:51:34.376Z,69.62
2023-05-21T02:52:34.369Z,70.34
2023-05-21T02:53:34.362Z,70.84
2023-05-21T02:54:34.345Z,69.65
2023-05-21T02:55:34.482Z,69.87
2023-05-21T02:56:34.308Z,69.39
2023-05-21T02:57:34.303Z,69.56
2023-05-21T02:58:34.303Z,69.91
2023-05-21T02:59:34.284Z,69.46
2023-05-21T03:00:34.291Z,69.70
2023-05-21T03:01:34.287Z,69.55
2023-05-21T03:02:34.291Z,69.70
2023-05-21T03:03:34.332Z,69.84
2023-05-21T03:04:34.243Z,69.99
2023-05-21T03:05:34.448Z,69.28
2023-05-21T03:06:34.181Z,69.37
2023-05-21T03:07:34.238Z,69.41
2023-05-21T03:08:34.170Z,69.02
2023-05-21T03:09:34.152Z,69.76
2023-05-21T03:10:34.133Z,69.84
2023-05-21T03:11:34.113Z,70.36
2023-05-21T03:12:34.114Z,70.06
2023-05-21T03:13:34.148Z,69.72
2023-05-21T03:14:34.098Z,69.84
2023-05-21T03:15:34.246Z,70.58
2023-05-21T03:16:34.084Z,70.58
2023-05-21T03:17:34.048Z,70.35
2023-05-21T03:18:34.027Z,70.63
2023-05-21T03:19:34.052Z,70.41
2023-05-21T03:20:34.004Z,70.04
2023-05-21T03:21:33.979Z,70.10
2023-05-21T03:22:33.988Z,69.77
2023-05-21T03:23:33.968Z,69.25
2023-05-21T03:24:33.951Z,69.19
2023-05-21T03:25:34.198Z,69.15
2023-05-21T03:26:33.935Z,69.71
2023-05-21T03:27:33.908Z,69.36
2023-05-21T03:28:33.922Z,68.96
2023-05-21T03:29:33.900Z,69.43
2023-05-21T03:30:33.878Z,68.37
2023-05-21T03:31:33.888Z,68.78
2023-05-21T03:32:33.933Z,68.94
2023-05-21T03:33:33.828Z,69.38
2023-05-21T03:34:33.828Z,69.29
2023-05-21T03:35:34.048Z,69.02
2023-05-21T03:36:33.792Z,69.11
2023-05-21T03:37:33.794Z,68.89
2023-05-21T03:38:34.922Z,69.12
2023-05-21T03:39:33.746Z,69.42
2023-05-21T03:40:33.775Z,69.87
2023-05-21T03:41:33.730Z,69.43
2023-05-21T03:42:33.713Z,68.97
2023-05-21T03:43:33.722Z,69.17
2023-05-21T03:44:33.687Z,69.12
2023-05-21T03:45:34.121Z,69.11
2023-05-21T03:46:33.797Z,69.07
2023-05-21T03:47:33.670Z,69.03
2023-05-21T03:48:33.638Z,68.89
2023-05-21T03:49:33.627Z,68.78
2023-05-21T03:50:33.615Z,68.33
2023-05-21T03:51:33.594Z,69.37
2023-05-21T03:52:33.606Z,69.17
2023-05-21T03:53:33.576Z,68.96
2023-05-21T03:54:33.556Z,68.89
2023-05-21T03:55:33.681Z,68.79
2023-05-21T03:56:33.527Z,68.97
2023-05-21T03:57:33.518Z,69.62
2023-05-21T03:58:33.512Z,68.97
2023-05-21T03:59:33.490Z,68.90
2023-05-21T04:00:33.488Z,68.74
2023-05-21T04:01:33.480Z,68.29
2023-05-21T04:02:33.557Z,68.38
2023-05-21T04:03:33.691Z,67.91
2023-05-21T04:04:33.551Z,67.97
2023-05-21T04:05:33.513Z,68.58
2023-05-21T04:06:33.396Z,68.07
2023-05-21T04:07:33.389Z,68.52
2023-05-21T04:08:33.370Z,67.84
2023-05-21T04:09:34.747Z,68.83
2023-05-21T04:10:33.363Z,68.93
2023-05-21T04:11:33.347Z,68.16
2023-05-21T04:12:33.337Z,68.60
2023-05-21T04:13:33.309Z,68.15
2023-05-21T04:14:33.338Z,68.10
2023-05-21T04:15:33.292Z,67.57
2023-05-21T04:16:33.305Z,67.87
2023-05-21T04:17:33.279Z,68.13
2023-05-21T04:18:33.244Z,69.23
2023-05-21T04:19:33.306Z,68.90
2023-05-21T04:20:33.235Z,68.40
2023-05-21T04:21:33.203Z,69.32
2023-05-21T04:22:33.191Z,69.47
2023-05-21T04:23:33.175Z,68.64
2023-05-21T04:24:33.168Z,68.22
2023-05-21T04:25:33.223Z,68.13
2023-05-21T04:26:33.145Z,68.53
2023-05-21T04:29:26.444Z,68.90
2023-05-21T04:30:27.338Z,69.27
2023-05-21T04:31:27.222Z,68.73
2023-05-21T04:32:27.133Z,68.61
2023-05-21T04:33:27.106Z,68.75
2023-05-21T04:34:27.082Z,67.60
2023-05-21T04:35:27.117Z,67.99
2023-05-21T04:36:27.055Z,68.39
2023-05-21T04:37:27.056Z,68.23
2023-05-21T04:38:27.068Z,67.98
2023-05-21T04:39:27.095Z,68.71
2023-05-21T04:40:26.991Z,70.03
2023-05-21T04:41:27.017Z,69.55
2023-05-21T04:42:26.975Z,69.34
2023-05-21T04:43:27.024Z,69.11
2023-05-21T04:44:26.950Z,68.31
2023-05-21T04:45:26.926Z,68.85
2023-05-21T04:46:27.016Z,69.29
2023-05-21T04:47:26.907Z,68.45
2023-05-21T04:48:27.098Z,68.81
2023-05-21T04:49:27.100Z,68.46
2023-05-21T04:50:26.858Z,68.52
2023-05-21T04:51:26.877Z,68.61
2023-05-21T04:52:26.837Z,68.36
2023-05-21T04:53:26.825Z,68.18
2023-05-21T04:54:26.830Z,68.57
2023-05-21T04:55:26.793Z,68.47
2023-05-21T04:56:26.797Z,67.59
2023-05-21T04:57:26.762Z,67.36
2023-05-21T04:58:26.747Z,67.12
2023-05-21T04:59:26.783Z,67.56
2023-05-21T05:00:26.722Z,67.97
2023-05-21T05:01:26.762Z,67.95
2023-05-21T05:02:26.740Z,68.62
2023-05-21T05:03:26.790Z,68.66
2023-05-21T05:04:26.675Z,68.50
2023-05-21T05:05:26.674Z,68.41
2023-05-21T05:06:26.669Z,68.18
2023-05-21T05:07:26.661Z,68.42
2023-05-21T05:08:26.633Z,68.46
2023-05-21T05:09:26.626Z,67.69
2023-05-21T05:10:26.598Z,67.98
2023-05-21T05:11:26.643Z,67.80
2023-05-21T05:12:26.576Z,68.12
2023-05-21T05:13:26.582Z,68.34
2023-05-21T05:14:26.544Z,68.00
2023-05-21T05:15:26.540Z,67.74
2023-05-21T05:16:26.572Z,68.22
2023-05-21T05:17:26.573Z,68.50
2023-05-21T05:18:26.510Z,68.40
2023-05-21T05:19:26.638Z,68.29
2023-05-21T05:20:26.464Z,68.05
2023-05-21T05:21:26.465Z,68.39
2023-05-21T05:22:26.464Z,67.91
2023-05-21T05:23:26.433Z,69.15
2023-05-21T05:24:26.408Z,71.40
2023-05-21T05:25:26.398Z,74.62
2023-05-21T05:26:26.402Z,76.44
2023-05-21T05:27:26.370Z,77.28
2023-05-21T05:28:26.379Z,77.94
2023-05-21T05:29:26.372Z,78.64
2023-05-21T05:30:26.333Z,78.97
2023-05-21T05:31:26.415Z,79.32
2023-05-21T05:32:26.318Z,79.48
2023-05-21T05:33:26.298Z,79.74
2023-05-21T05:34:26.294Z,79.88
2023-05-21T05:35:26.321Z,80.16
2023-05-21T05:36:26.288Z,80.40
2023-05-21T05:37:26.258Z,80.64
2023-05-21T05:38:26.227Z,80.62
2023-05-21T05:39:26.220Z,80.35
2023-05-21T05:40:26.214Z,80.40
2023-05-21T05:41:26.196Z,80.29
2023-05-21T05:42:26.172Z,80.39
2023-05-21T05:43:26.182Z,80.68
2023-05-21T05:44:26.152Z,81.05
2023-05-21T05:45:26.138Z,80.94
2023-05-21T05:46:26.197Z,81.28
2023-05-21T05:47:26.143Z,81.41
2023-05-21T05:48:26.108Z,81.43
2023-05-21T05:49:26.229Z,81.59
2023-05-21T05:50:26.084Z,81.52
2023-05-21T05:51:26.077Z,81.46
2023-05-21T05:52:26.052Z,81.66
2023-05-21T05:53:26.043Z,81.53
2023-05-21T05:54:26.014Z,81.50
2023-05-21T05:55:26.022Z,81.48
2023-05-21T05:56:25.979Z,81.69
2023-05-21T05:57:25.984Z,81.48
2023-05-21T05:58:25.975Z,81.57
2023-05-21T05:59:26.034Z,81.64
2023-05-21T06:00:25.937Z,81.52
2023-05-21T06:01:25.931Z,81.62
2023-05-21T06:02:26.044Z,81.55
2023-05-21T06:03:25.998Z,81.50
2023-05-21T06:04:25.880Z,81.49
2023-05-21T06:05:25.911Z,81.88
2023-05-21T06:06:25.847Z,81.65
2023-05-21T06:07:25.850Z,81.51
2023-05-21T06:08:25.826Z,81.54
2023-05-21T06:09:25.815Z,81.30
2023-05-21T06:10:25.823Z,81.24
2023-05-21T06:11:25.789Z,80.80
2023-05-21T06:12:25.789Z,80.83
2023-05-21T06:13:25.769Z,81.01
2023-05-21T06:14:25.743Z,80.97
2023-05-21T06:15:25.730Z,80.53
2023-05-21T06:16:25.773Z,80.55
2023-05-21T06:17:25.746Z,80.84
2023-05-21T06:18:25.699Z,80.96
2023-05-21T06:19:25.729Z,80.71
2023-05-21T06:20:25.659Z,80.60
2023-05-21T06:21:25.665Z,80.79
2023-05-21T06:22:25.824Z,81.26
2023-05-21T06:23:25.640Z,80.89
2023-05-21T06:24:25.612Z,80.85
2023-05-21T06:25:25.601Z,80.96
2023-05-21T06:26:25.623Z,81.15
2023-05-21T06:27:25.615Z,81.29
2023-05-21T06:28:25.556Z,81.19
2023-05-21T06:29:25.568Z,80.96
2023-05-21T06:30:25.551Z,80.49
2023-05-21T06:31:25.521Z,80.41
2023-05-21T06:32:25.578Z,80.34
2023-05-21T06:33:25.604Z,80.45
2023-05-21T06:34:25.501Z,80.38
2023-05-21T06:35:25.479Z,80.45
2023-05-21T06:36:25.480Z,80.32
2023-05-21T06:37:26.639Z,80.18
2023-05-21T06:38:25.423Z,79.91
2023-05-21T06:39:25.451Z,79.12
2023-05-21T06:40:25.410Z,78.83
2023-05-21T06:41:25.399Z,78.32
2023-05-21T06:42:25.394Z,77.97
2023-05-21T06:43:25.374Z,78.17
2023-05-21T06:44:25.363Z,78.73
2023-05-21T06:45:25.355Z,78.34
2023-05-21T06:46:25.407Z,77.71
2023-05-21T06:47:25.379Z,77.51
2023-05-21T06:48:25.303Z,77.61
2023-05-21T06:49:25.359Z,77.17
2023-05-21T06:50:25.319Z,75.32
2023-05-21T06:51:25.270Z,74.28
2023-05-21T06:52:25.258Z,74.18
2023-05-21T06:53:25.257Z,74.73
2023-05-21T06:54:26.894Z,74.56
2023-05-21T06:55:25.214Z,74.27
2023-05-21T06:56:25.193Z,74.11
2023-05-21T06:57:25.211Z,73.26
2023-05-21T06:58:25.186Z,73.44
2023-05-21T06:59:25.226Z,72.88
2023-05-21T07:00:25.142Z,72.54
2023-05-21T07:01:25.223Z,71.99
2023-05-21T07:02:25.192Z,72.18
2023-05-21T07:03:25.252Z,71.43
2023-05-21T07:04:25.091Z,71.04
2023-05-21T07:05:25.095Z,71.63
2023-05-21T07:06:25.112Z,71.78
2023-05-21T07:07:25.088Z,73.63
2023-05-21T07:08:25.031Z,71.62
2023-05-21T07:09:25.063Z,72.05
2023-05-21T07:10:25.037Z,71.35
2023-05-21T07:11:24.997Z,70.14
2023-05-21T07:12:25.009Z,70.21
2023-05-21T07:13:25.017Z,68.66
2023-05-21T07:14:24.966Z,68.74
2023-05-21T07:15:24.934Z,68.29
2023-05-21T07:16:25.003Z,68.11
2023-05-21T07:17:24.941Z,69.99
2023-05-21T07:18:24.929Z,68.13
2023-05-21T07:19:24.909Z,68.07
2023-05-21T07:20:24.892Z,66.67
2023-05-21T07:21:24.889Z,68.38
2023-05-21T07:22:27.376Z,67.49
2023-05-21T07:23:24.874Z,69.54
2023-05-21T07:24:24.830Z,68.25
2023-05-21T07:25:24.808Z,67.82
2023-05-21T07:26:24.797Z,67.20
2023-05-21T07:27:26.098Z,66.90
2023-05-21T07:28:24.786Z,67.53
2023-05-21T07:29:24.753Z,66.83
2023-05-21T07:30:24.782Z,67.38
2023-05-21T07:31:24.765Z,66.58
2023-05-21T07:32:24.728Z,66.91
2023-05-21T07:33:24.703Z,67.69
2023-05-21T07:34:24.691Z,67.41
2023-05-21T07:35:24.670Z,67.49
2023-05-21T07:36:24.668Z,66.77
2023-05-21T07:37:24.707Z,66.37
2023-05-21T07:38:24.648Z,69.65
2023-05-21T07:39:24.646Z,68.65
2023-05-21T07:40:24.653Z,68.27
2023-05-21T07:41:24.616Z,67.00
2023-05-21T07:42:24.596Z,66.19
2023-05-21T07:43:24.578Z,64.46
2023-05-21T07:44:24.565Z,65.03
2023-05-21T07:45:24.564Z,65.13
2023-05-21T07:46:24.621Z,66.43
2023-05-21T07:47:24.555Z,68.26
2023-05-21T07:48:24.547Z,65.29
2023-05-21T07:49:24.510Z,65.41
2023-05-21T07:50:24.531Z,66.83
2023-05-21T07:51:24.463Z,65.59
2023-05-21T07:52:24.505Z,64.55
2023-05-21T07:53:24.445Z,65.22
2023-05-21T07:54:24.463Z,65.45
2023-05-21T07:55:24.421Z,65.21
2023-05-21T07:56:24.419Z,65.58
2023-05-21T07:57:24.396Z,66.68
2023-05-21T07:58:24.403Z,66.94
2023-05-21T07:59:24.364Z,64.80
2023-05-21T08:00:24.423Z,65.72
2023-05-21T08:01:24.349Z,65.44
2023-05-21T08:02:24.436Z,66.11
2023-05-21T08:03:24.458Z,64.99
2023-05-21T08:04:24.520Z,65.14
2023-05-21T08:05:24.312Z,64.42
2023-05-21T08:06:24.295Z,65.77
2023-05-21T08:07:24.286Z,65.53
2023-05-21T08:08:24.277Z,65.20
2023-05-21T08:09:24.238Z,64.05
2023-05-21T08:10:24.242Z,64.24
2023-05-21T08:11:24.213Z,64.92
2023-05-21T08:12:24.191Z,67.12
2023-05-21T08:13:24.190Z,67.08
2023-05-21T08:14:24.194Z,67.57
2023-05-21T08:15:24.156Z,67.91
2023-05-21T08:16:24.218Z,67.21
2023-05-21T08:17:24.151Z,67.24
2023-05-21T08:18:24.161Z,66.71
2023-05-21T08:19:24.150Z,67.34
2023-05-21T08:20:24.139Z,67.83
2023-05-21T08:21:24.115Z,67.98
2023-05-21T08:22:24.099Z,67.38
2023-05-21T08:23:24.056Z,66.68
2023-05-21T08:24:24.065Z,67.54
2023-05-21T08:25:24.026Z,67.56
2023-05-21T08:26:24.013Z,68.44
2023-05-21T08:27:23.999Z,68.32
2023-05-21T08:28:23.989Z,67.26
2023-05-21T08:29:23.987Z,67.29
2023-05-21T08:30:23.966Z,66.74
2023-05-21T08:31:23.957Z,66.84
2023-05-21T08:32:23.958Z,67.40
2023-05-21T08:33:23.914Z,67.76
2023-05-21T08:34:23.953Z,67.57
2023-05-21T08:35:23.887Z,68.12
2023-05-21T08:36:23.897Z,68.17
2023-05-21T08:37:23.877Z,67.40
2023-05-21T08:38:23.864Z,67.01
2023-05-21T08:39:23.849Z,66.29
2023-05-21T08:40:23.831Z,66.56
2023-05-21T08:41:23.818Z,67.03
2023-05-21T08:42:35.627Z,67.84
2023-05-21T08:43:23.808Z,68.51
2023-05-21T08:44:23.852Z,69.17
2023-05-21T08:45:23.790Z,69.51
2023-05-21T08:46:23.804Z,69.26
2023-05-21T08:47:23.796Z,69.94
2023-05-21T08:48:23.764Z,70.12
2023-05-21T08:49:25.057Z,68.73
2023-05-21T08:50:23.741Z,67.41
2023-05-21T08:51:23.722Z,68.15
2023-05-21T08:52:23.675Z,68.72
2023-05-21T08:53:28.797Z,66.55
2023-05-21T08:54:23.660Z,65.67
2023-05-21T08:55:23.685Z,65.76
2023-05-21T08:56:23.613Z,65.75
2023-05-21T08:57:23.616Z,65.82
2023-05-21T08:58:23.636Z,65.88
2023-05-21T08:59:23.599Z,65.76
2023-05-21T09:00:23.600Z,67.11
2023-05-21T09:01:26.291Z,66.51
2023-05-21T09:02:23.573Z,67.15
2023-05-21T09:03:23.629Z,67.07
2023-05-21T09:04:23.584Z,67.10
2023-05-21T09:05:23.529Z,67.49
2023-05-21T09:06:23.490Z,68.14
2023-05-21T09:07:23.479Z,68.80
2023-05-21T09:08:23.470Z,68.40
2023-05-21T09:09:23.470Z,68.07
2023-05-21T09:10:23.476Z,68.69
2023-05-21T09:11:23.437Z,68.65
2023-05-21T09:12:23.422Z,68.21
2023-05-21T09:13:23.404Z,68.53
2023-05-21T09:14:23.417Z,68.50
2023-05-21T09:15:23.404Z,68.99
2023-05-21T09:16:23.377Z,69.27
2023-05-21T09:17:23.375Z,70.04
2023-05-21T09:18:23.346Z,70.30
2023-05-21T09:19:23.377Z,70.28
2023-05-21T09:20:23.352Z,70.24
2023-05-21T09:21:23.296Z,69.88
2023-05-21T09:22:23.336Z,69.46
2023-05-21T09:23:23.314Z,69.13
2023-05-21T09:24:23.267Z,68.51
2023-05-21T09:25:23.270Z,68.27
2023-05-21T09:26:23.223Z,67.82
2023-05-21T09:27:23.226Z,67.59
2023-05-21T09:28:23.199Z,68.10
2023-05-21T09:29:23.220Z,68.55
2023-05-21T09:30:26.650Z,67.95
2023-05-21T09:31:23.202Z,67.35
2023-05-21T09:32:23.155Z,68.68
2023-05-21T09:33:23.133Z,69.12
2023-05-21T09:34:23.129Z,68.52
2023-05-21T09:35:23.129Z,67.51
2023-05-21T09:36:23.148Z,67.88
2023-05-21T09:37:27.550Z,67.67
2023-05-21T09:38:23.081Z,66.46
2023-05-21T09:39:23.056Z,66.72
2023-05-21T09:40:23.061Z,66.57
2023-05-21T09:41:23.035Z,66.47
2023-05-21T09:42:23.016Z,66.92
2023-05-21T09:43:23.023Z,67.61
2023-05-21T09:44:22.990Z,67.25
2023-05-21T09:45:23.033Z,67.20
2023-05-21T09:46:23.048Z,67.24
2023-05-21T09:47:22.984Z,66.81
2023-05-21T09:48:22.940Z,66.95
2023-05-21T09:49:22.969Z,67.00
2023-05-21T09:50:22.930Z,67.03
2023-05-21T09:51:22.903Z,67.58
2023-05-21T09:52:22.935Z,67.15
2023-05-21T09:53:22.864Z,67.43
2023-05-21T09:54:22.872Z,67.39
2023-05-21T09:55:22.887Z,67.20
2023-05-21T09:56:22.847Z,67.18
2023-05-21T09:57:22.827Z,66.53
2023-05-21T09:58:22.824Z,66.71
2023-05-21T09:59:22.802Z,67.75
2023-05-21T10:00:22.841Z,68.04
2023-05-21T10:01:22.799Z,66.64
2023-05-21T10:02:23.111Z,63.84
2023-05-21T10:03:22.782Z,66.40
2023-05-21T10:04:22.830Z,63.45
2023-05-21T10:05:22.733Z,63.48
2023-05-21T10:06:22.719Z,64.45
2023-05-21T10:07:22.701Z,63.46
2023-05-21T10:08:22.688Z,63.07
2023-05-21T10:09:22.674Z,62.28
2023-05-21T10:10:22.760Z,63.24
2023-05-21T10:11:22.671Z,63.14
2023-05-21T10:12:22.638Z,63.68
2023-05-21T10:13:22.617Z,64.00
2023-05-21T10:14:22.754Z,63.69
2023-05-21T10:15:22.598Z,60.75
2023-05-21T10:16:22.631Z,60.66
2023-05-21T10:17:22.665Z,62.67
2023-05-21T10:18:22.594Z,63.83
2023-05-21T10:19:22.678Z,61.95
2023-05-21T10:20:22.526Z,61.86
2023-05-21T10:21:22.533Z,62.56
2023-05-21T10:22:22.493Z,64.47
2023-05-21T10:23:22.496Z,61.59
2023-05-21T10:24:22.479Z,60.62
2023-05-21T10:25:22.460Z,62.14
2023-05-21T10:26:22.456Z,61.29
2023-05-21T10:27:22.462Z,60.30
2023-05-21T10:28:22.453Z,60.94
2023-05-21T10:29:22.413Z,60.73
2023-05-21T10:30:22.457Z,61.00
2023-05-21T10:31:22.425Z,60.88
2023-05-21T10:32:22.497Z,60.14
2023-05-21T10:33:22.433Z,60.54
2023-05-21T10:34:22.366Z,61.98
2023-05-21T10:35:22.348Z,62.51
2023-05-21T10:36:22.368Z,62.71
2023-05-21T10:37:22.351Z,62.27
2023-05-21T10:38:22.308Z,61.01
2023-05-21T10:39:22.340Z,61.17
2023-05-21T10:40:22.277Z,61.32
2023-05-21T10:41:22.282Z,60.11
2023-05-21T10:42:22.296Z,57.46
2023-05-21T10:43:22.246Z,56.06
2023-05-21T10:44:22.257Z,55.75
2023-05-21T10:45:22.196Z,56.08
2023-05-21T10:46:22.276Z,59.79
2023-05-21T10:47:22.195Z,56.94
2023-05-21T10:48:22.252Z,59.36
2023-05-21T10:49:22.188Z,55.24
2023-05-21T10:50:22.173Z,53.54
2023-05-21T10:51:22.135Z,54.59
2023-05-21T10:52:22.220Z,56.29
2023-05-21T10:53:22.117Z,56.48
2023-05-21T10:54:22.114Z,53.41
2023-05-21T10:55:22.107Z,54.53
2023-05-21T10:56:22.119Z,56.06
2023-05-21T10:57:22.078Z,59.55
2023-05-21T10:58:22.049Z,58.90
2023-05-21T10:59:22.333Z,61.86
2023-05-21T11:00:22.043Z,61.37
2023-05-21T11:01:22.088Z,58.65
2023-05-21T11:02:22.122Z,56.67
2023-05-21T11:03:22.193Z,59.56
2023-05-21T11:04:21.996Z,60.05
2023-05-21T11:05:21.985Z,62.60
2023-05-21T11:06:21.966Z,58.42
2023-05-21T11:07:21.944Z,59.14
2023-05-21T11:08:21.918Z,58.59
2023-05-21T11:09:21.942Z,61.37
2023-05-21T11:10:21.921Z,59.94
2023-05-21T11:11:21.898Z,60.20
2023-05-21T11:12:21.904Z,58.43
2023-05-21T11:13:21.904Z,55.94
2023-05-21T11:14:21.879Z,58.85
2023-05-21T11:15:21.865Z,60.11
2023-05-21T11:16:21.939Z,57.34
2023-05-21T11:17:21.905Z,55.09
2023-05-21T11:18:21.781Z,54.36
2023-05-21T11:19:21.884Z,57.70
2023-05-21T11:20:21.788Z,58.96
2023-05-21T11:21:21.772Z,55.81
2023-05-21T11:22:21.964Z,56.76
2023-05-21T11:23:21.762Z,58.78
2023-05-21T11:24:21.707Z,59.35
2023-05-21T11:25:21.730Z,61.19
2023-05-21T11:26:21.783Z,58.88
2023-05-21T11:27:21.712Z,54.40
2023-05-21T11:28:21.719Z,53.71
2023-05-21T11:29:21.656Z,55.16
2023-05-21T11:30:21.671Z,56.05
2023-05-21T11:31:21.624Z,53.72
2023-05-21T11:32:21.620Z,54.01
2023-05-21T11:33:21.680Z,56.13
2023-05-21T11:34:21.567Z,55.14
2023-05-21T11:35:21.585Z,57.04
2023-05-21T11:36:21.602Z,56.30
2023-05-21T11:37:21.567Z,58.78
2023-05-21T11:38:21.574Z,60.88
2023-05-21T11:39:21.529Z,58.47
2023-05-21T11:40:21.554Z,55.16
2023-05-21T11:41:21.514Z,55.18
2023-05-21T11:42:21.480Z,57.17
2023-05-21T11:43:21.481Z,61.72
2023-05-21T11:44:21.515Z,59.15
2023-05-21T11:45:21.509Z,57.10
2023-05-21T11:46:21.481Z,54.81
2023-05-21T11:47:21.480Z,56.48
2023-05-21T11:48:21.463Z,59.35
2023-05-21T11:49:21.413Z,61.76
2023-05-21T11:50:21.405Z,61.06
2023-05-21T11:51:21.400Z,61.37
2023-05-21T11:52:21.426Z,58.53
2023-05-21T11:53:21.352Z,60.02
2023-05-21T11:54:31.976Z,60.15
2023-05-21T11:55:21.661Z,55.18
2023-05-21T11:56:21.561Z,53.37
2023-05-21T11:57:21.310Z,56.10
2023-05-21T11:58:21.384Z,59.18
2023-05-21T11:59:21.276Z,59.59
2023-05-21T12:00:21.271Z,57.52
2023-05-21T12:01:21.333Z,59.67
2023-05-21T12:02:21.411Z,57.89
2023-05-21T12:03:21.393Z,59.68
2023-05-21T12:04:21.206Z,55.88
2023-05-21T12:05:21.218Z,55.18
2023-05-21T12:06:21.347Z,56.25
2023-05-21T12:07:21.283Z,54.54
2023-05-21T12:08:21.226Z,55.95
2023-05-21T12:09:21.185Z,55.56
2023-05-21T12:10:21.132Z,54.24
2023-05-21T12:11:21.150Z,52.64
2023-05-21T12:12:21.160Z,52.70
2023-05-21T12:13:21.164Z,55.12
2023-05-21T12:14:21.211Z,60.27
2023-05-21T12:15:21.105Z,61.43
2023-05-21T12:16:21.128Z,61.06
2023-05-21T12:17:21.087Z,59.66
2023-05-21T12:18:21.128Z,53.22
2023-05-21T12:19:21.173Z,52.82
2023-05-21T12:20:21.178Z,51.34
2023-05-21T12:21:20.995Z,55.33
2023-05-21T12:22:21.032Z,56.28
2023-05-21T12:23:21.080Z,54.83
2023-05-21T12:24:20.996Z,54.55
2023-05-21T12:25:21.131Z,55.53
2023-05-21T12:26:20.969Z,55.60
2023-05-21T12:27:20.989Z,57.63
2023-05-21T12:28:20.981Z,59.97
2023-05-21T12:29:20.923Z,60.37
2023-05-21T12:30:20.960Z,58.22
2023-05-21T12:31:20.970Z,57.12
2023-05-21T12:32:20.965Z,56.89
2023-05-21T12:33:22.444Z,59.38
2023-05-21T12:34:20.841Z,60.75
2023-05-21T12:35:20.982Z,58.35
2023-05-21T12:36:20.914Z,56.10
2023-05-21T12:37:20.816Z,55.22
2023-05-21T12:38:20.786Z,54.92
2023-05-21T12:39:20.920Z,56.89
2023-05-21T12:40:20.845Z,58.61
2023-05-21T12:41:20.810Z,54.84
2023-05-21T12:42:20.710Z,54.95
2023-05-21T12:43:20.797Z,55.56
2023-05-21T12:44:20.774Z,57.62
2023-05-21T12:45:20.778Z,53.04
2023-05-21T12:46:20.761Z,55.85
2023-05-21T12:47:20.758Z,56.52
2023-05-21T12:48:20.649Z,55.97
2023-05-21T12:49:20.714Z,55.12
2023-05-21T12:50:20.673Z,48.73
2023-05-21T12:51:20.612Z,45.84
2023-05-21T12:52:20.625Z,49.96
2023-05-21T12:53:20.670Z,53.37
2023-05-21T12:54:20.651Z,47.15